createdAt,value
2023-02-14T00:01:50.636Z,9.63
2023-02-14T00:04:18.946Z,11.88
2023-02-14T00:06:46.016Z,11.43
2023-02-14T00:09:16.598Z,9.23
2023-02-14T00:11:46.210Z,11.43
2023-02-14T00:14:31.950Z,13.10
2023-02-14T00:16:58.997Z,11.07
2023-02-14T00:19:25.537Z,10.80
2023-02-14T00:21:52.119Z,9.23
2023-02-14T00:24:21.822Z,9.65
2023-02-14T00:26:48.860Z,9.25
2023-02-14T00:29:19.292Z,8.40
2023-02-14T00:31:47.503Z,7.30
2023-02-14T00:34:16.452Z,7.13
2023-02-14T00:36:44.003Z,7.63
2023-02-14T00:39:15.659Z,8.77
2023-02-14T00:41:43.169Z,10.73
2023-02-14T00:44:13.524Z,10.38
2023-02-14T00:46:43.416Z,9.10
2023-02-14T00:49:10.478Z,10.57
2023-02-14T00:51:37.530Z,12.63
2023-02-14T00:54:04.539Z,11.98
2023-02-14T00:56:34.760Z,12.93
2023-02-14T00:59:01.635Z,11.63
2023-02-14T01:01:28.266Z,12.23
2023-02-14T01:03:54.959Z,11.98
2023-02-14T01:06:23.330Z,10.98
2023-02-14T01:08:49.845Z,10.60
2023-02-14T01:11:19.056Z,8.82
2023-02-14T01:13:46.670Z,8.40
2023-02-14T01:16:16.653Z,8.63
2023-02-14T01:18:45.646Z,9.10
2023-02-14T01:21:16.217Z,8.52
2023-02-14T01:23:43.874Z,8.63
2023-02-14T01:26:11.564Z,9.43
2023-02-14T01:28:38.694Z,9.02
2023-02-14T01:31:20.515Z,9.40
2023-02-14T01:33:48.783Z,9.43
2023-02-14T01:36:25.920Z,10.10
2023-02-14T01:39:23.912Z,9.90
2023-02-14T01:41:50.532Z,9.80
2023-02-14T01:44:17.312Z,10.40
2023-02-14T01:46:46.538Z,10.02
2023-02-14T01:49:23.477Z,10.75
2023-02-14T01:51:57.918Z,10.27
2023-02-14T01:54:27.553Z,10.27
2023-02-14T01:57:00.896Z,10.18
2023-02-14T01:59:34.435Z,10.13
2023-02-14T02:02:01.470Z,11.10
2023-02-14T02:04:40.378Z,10.63
2023-02-14T02:07:12.011Z,11.18
2023-02-14T02:09:54.416Z,10.95
2023-02-14T02:12:22.045Z,10.98
2023-02-14T02:14:52.592Z,10.97
2023-02-14T02:17:54.697Z,11.10
2023-02-14T02:20:30.595Z,12.73
2023-02-14T02:23:09.723Z,12.90
2023-02-14T02:26:14.157Z,11.57
2023-02-14T02:29:11.962Z,12.52
2023-02-14T02:31:54.031Z,12.02
2023-02-14T02:34:58.653Z,11.25
2023-02-14T02:37:31.577Z,10.90
2023-02-14T02:40:04.913Z,10.60
2023-02-14T02:42:31.739Z,11.35
2023-02-14T02:45:18.141Z,11.27
2023-02-14T02:48:11.042Z,11.50
2023-02-14T02:51:01.634Z,11.27
2023-02-14T02:53:44.875Z,9.55
2023-02-14T02:56:44.664Z,10.75
2023-02-14T02:59:20.784Z,11.23
2023-02-14T03:02:20.046Z,10.27
2023-02-14T03:04:58.367Z,10.30
2023-02-14T03:10:26.389Z,9.32
2023-02-14T03:13:30.936Z,10.95
2023-02-14T03:16:17.140Z,9.90
2023-02-14T03:19:26.615Z,9.88
2023-02-14T03:22:27.445Z,8.82
2023-02-14T03:25:11.326Z,9.15
2023-02-14T03:28:19.712Z,9.63
2023-02-14T03:30:59.285Z,9.43
2023-02-14T03:33:35.122Z,8.82
2023-02-14T03:36:10.186Z,9.55
2023-02-14T03:38:47.444Z,9.43
2023-02-14T03:41:30.089Z,9.40
2023-02-14T03:44:04.555Z,9.98
2023-02-14T03:46:37.877Z,9.52
2023-02-14T03:49:11.991Z,10.25
2023-02-14T03:51:40.662Z,10.07
2023-02-14T03:54:14.722Z,10.73
2023-02-14T03:56:47.450Z,9.27
2023-02-14T03:59:20.404Z,9.35
2023-02-14T04:01:55.552Z,9.95
2023-02-14T04:04:27.240Z,9.25
2023-02-14T04:06:56.208Z,9.48
2023-02-14T04:09:23.099Z,9.85
2023-02-14T04:11:50.704Z,9.45
2023-02-14T04:14:17.497Z,9.67
2023-02-14T04:17:02.780Z,10.85
2023-02-14T04:19:29.730Z,9.88
2023-02-14T04:21:56.385Z,9.00
2023-02-14T04:24:24.453Z,9.65
2023-02-14T04:27:14.590Z,10.27
2023-02-14T04:29:47.325Z,9.95
2023-02-14T04:32:16.554Z,10.15
2023-02-14T04:34:43.897Z,9.85
2023-02-14T04:37:12.026Z,10.20
2023-02-14T04:39:39.141Z,10.52
2023-02-14T04:42:07.360Z,9.82
2023-02-14T04:44:36.089Z,10.13
2023-02-14T04:47:02.924Z,10.88
2023-02-14T04:49:29.683Z,11.02
2023-02-14T04:51:57.636Z,11.20
2023-02-14T04:54:26.052Z,10.27
2023-02-14T04:56:53.096Z,10.90
2023-02-14T04:59:19.993Z,11.25
2023-02-14T05:01:46.770Z,12.75
2023-02-14T05:04:13.640Z,12.27
2023-02-14T05:06:40.565Z,12.40
2023-02-14T05:09:07.063Z,12.02
2023-02-14T05:11:35.109Z,12.23
2023-02-14T05:14:03.291Z,12.95
2023-02-14T05:16:29.963Z,11.68
2023-02-14T05:19:00.342Z,11.63
2023-02-14T05:21:28.358Z,16.40
2023-02-14T05:23:55.042Z,13.10
2023-02-14T05:26:21.934Z,15.95
2023-02-14T05:28:48.470Z,21.92
2023-02-14T05:31:15.363Z,24.75
2023-02-14T05:33:42.155Z,22.63
2023-02-14T05:36:09.076Z,21.35
2023-02-14T05:38:35.917Z,21.88
2023-02-14T05:41:02.599Z,20.55
2023-02-14T05:43:31.973Z,18.98
2023-02-14T05:46:00.563Z,18.83
2023-02-14T05:48:27.427Z,16.55
2023-02-14T05:50:56.467Z,13.82
2023-02-14T05:53:23.138Z,12.05
2023-02-14T05:55:49.924Z,11.75
2023-02-14T05:58:19.288Z,12.73
2023-02-14T06:00:50.555Z,13.30
2023-02-14T06:03:22.650Z,13.07
2023-02-14T06:05:49.560Z,12.32
2023-02-14T06:08:21.782Z,12.80
2023-02-14T06:10:51.073Z,12.57
2023-02-14T06:13:17.698Z,13.18
2023-02-14T06:15:44.578Z,13.88
2023-02-14T06:18:11.285Z,14.23
2023-02-14T06:20:38.247Z,12.43
2023-02-14T06:23:05.179Z,10.40
2023-02-14T06:25:34.836Z,10.20
2023-02-14T06:28:01.818Z,8.88
2023-02-14T06:30:28.806Z,10.07
2023-02-14T06:32:58.972Z,9.75
2023-02-14T06:35:25.573Z,10.95
2023-02-14T06:37:52.101Z,11.02
2023-02-14T06:40:20.033Z,9.25
2023-02-14T06:42:49.393Z,10.02
2023-02-14T06:45:16.094Z,10.23
2023-02-14T06:47:42.640Z,10.00
2023-02-14T06:50:12.000Z,11.73
2023-02-14T06:52:39.440Z,15.00
2023-02-14T06:55:06.227Z,11.80
2023-02-14T06:57:34.200Z,11.57
2023-02-14T07:00:00.852Z,13.55
2023-02-14T07:02:27.388Z,14.40
2023-02-14T07:04:54.063Z,13.77
2023-02-14T07:07:20.597Z,12.93
2023-02-14T07:09:50.100Z,13.30
2023-02-14T07:12:18.950Z,14.82
2023-02-14T07:14:45.833Z,13.70
2023-02-14T07:17:12.716Z,15.45
2023-02-14T07:19:39.551Z,14.93
2023-02-14T07:22:08.328Z,11.27
2023-02-14T07:24:37.213Z,9.23
2023-02-14T07:27:06.902Z,10.02
2023-02-14T07:29:33.639Z,9.32
2023-02-14T07:32:00.674Z,8.55
2023-02-14T07:34:30.153Z,8.82
2023-02-14T07:36:59.301Z,9.57
2023-02-14T07:39:25.812Z,9.27
2023-02-14T07:41:52.637Z,10.38
2023-02-14T07:44:19.504Z,9.65
2023-02-14T07:46:48.392Z,9.95
2023-02-14T07:49:15.196Z,9.85
2023-02-14T07:51:42.455Z,10.00
2023-02-14T07:54:08.971Z,9.07
2023-02-14T07:56:36.015Z,9.57
2023-02-14T07:59:03.098Z,10.68
2023-02-14T08:01:29.721Z,10.70
2023-02-14T08:03:56.288Z,10.25
2023-02-14T08:06:23.184Z,10.48
2023-02-14T08:08:49.726Z,10.00
2023-02-14T08:11:36.829Z,9.55
2023-02-14T08:14:04.941Z,10.48
2023-02-14T08:16:34.997Z,10.88
2023-02-14T08:19:03.923Z,10.60
2023-02-14T08:21:33.337Z,10.48
2023-02-14T08:23:59.874Z,10.60
2023-02-14T08:26:26.549Z,10.55
2023-02-14T08:28:53.323Z,10.60
2023-02-14T08:31:36.841Z,10.45
2023-02-14T08:34:07.552Z,11.07
2023-02-14T08:36:35.264Z,10.20
2023-02-14T08:39:05.375Z,11.23
2023-02-14T08:41:33.112Z,10.65
2023-02-14T08:43:59.743Z,11.52
2023-02-14T08:46:27.774Z,10.50
2023-02-14T08:48:55.285Z,10.65
2023-02-14T08:51:23.148Z,10.48
2023-02-14T08:53:53.269Z,10.75
2023-02-14T08:56:21.751Z,11.38
2023-02-14T08:58:53.818Z,11.93
2023-02-14T09:01:23.327Z,11.65
2023-02-14T09:03:50.877Z,13.60
2023-02-14T09:06:18.424Z,14.20
2023-02-14T09:08:47.123Z,14.65
2023-02-14T09:11:19.059Z,15.20
2023-02-14T09:13:48.877Z,15.05
2023-02-14T09:16:20.773Z,14.55
2023-02-14T09:18:48.841Z,15.10
2023-02-14T09:23:48.061Z,16.02
2023-02-14T09:26:19.311Z,15.48
2023-02-14T09:28:46.198Z,16.85
2023-02-14T09:31:23.281Z,17.20
2023-02-14T09:34:10.352Z,16.67
2023-02-14T09:36:57.444Z,17.80
2023-02-14T09:39:29.783Z,17.77
2023-02-14T09:42:37.646Z,18.27
2023-02-14T09:45:17.284Z,18.50
2023-02-14T09:47:58.522Z,17.50
2023-02-14T09:50:34.841Z,18.15
2023-02-14T09:53:23.128Z,17.90
2023-02-14T09:55:56.477Z,18.25
2023-02-14T09:58:50.370Z,17.00
2023-02-14T10:01:35.643Z,17.35
2023-02-14T10:04:24.219Z,17.27
2023-02-14T10:06:52.688Z,17.20
2023-02-14T10:09:35.177Z,16.55
2023-02-14T10:12:02.515Z,15.73
2023-02-14T10:14:35.296Z,16.77
2023-02-14T10:17:10.183Z,15.57
2023-02-14T10:19:44.617Z,16.65
2023-02-14T10:22:34.686Z,15.02
2023-02-14T10:25:08.411Z,16.52
2023-02-14T10:27:36.887Z,16.02
2023-02-14T10:30:17.499Z,16.77
2023-02-14T10:32:56.634Z,15.43
2023-02-14T10:35:32.285Z,14.93
2023-02-14T10:38:05.228Z,14.23
2023-02-14T10:40:31.681Z,14.25
2023-02-14T10:43:10.625Z,15.05
2023-02-14T10:46:22.121Z,15.30
2023-02-14T10:49:00.102Z,14.30
2023-02-14T10:54:37.538Z,14.75
2023-02-14T10:57:18.860Z,15.93
2023-02-14T10:59:57.189Z,15.13
2023-02-14T11:02:30.854Z,15.10
2023-02-14T11:05:00.001Z,14.70
2023-02-14T11:07:30.103Z,15.90
2023-02-14T11:09:57.876Z,14.40
2023-02-14T11:12:44.986Z,14.65
2023-02-14T11:15:14.446Z,14.95
2023-02-14T11:17:42.521Z,14.48
2023-02-14T11:22:53.105Z,14.02
2023-02-14T11:25:20.021Z,14.23
2023-02-14T11:27:50.422Z,14.48
2023-02-14T11:30:27.586Z,15.00
2023-02-14T11:32:56.556Z,14.30
2023-02-14T11:35:34.707Z,14.43
2023-02-14T11:38:07.296Z,14.35
2023-02-14T11:40:35.896Z,14.85
2023-02-14T11:43:21.547Z,14.38
2023-02-14T11:45:49.538Z,14.35
2023-02-14T11:51:11.297Z,15.10
2023-02-14T11:53:55.172Z,14.52
2023-02-14T11:56:24.339Z,14.25
2023-02-14T11:59:02.198Z,13.15
2023-02-14T12:04:15.922Z,14.00
2023-02-14T12:06:44.798Z,13.85
2023-02-14T12:13:12.331Z,13.50
2023-02-14T12:15:42.712Z,15.27
2023-02-14T12:18:11.917Z,13.70
2023-02-14T12:20:45.948Z,14.93
2023-02-14T12:23:26.896Z,15.10
2023-02-14T12:26:33.102Z,13.32
2023-02-14T12:29:17.757Z,13.98
2023-02-14T12:31:46.748Z,14.60
2023-02-14T12:34:18.282Z,14.90
2023-02-14T12:36:47.837Z,15.00
2023-02-14T12:39:39.315Z,15.43
2023-02-14T12:42:36.954Z,14.48
2023-02-14T12:45:20.360Z,13.57
2023-02-14T12:48:24.251Z,13.80
2023-02-14T12:51:05.539Z,15.00
2023-02-14T12:53:50.961Z,14.38
2023-02-14T12:56:33.027Z,13.65
2023-02-14T12:59:07.046Z,14.55
2023-02-14T13:01:52.263Z,14.02
2023-02-14T13:04:34.407Z,15.18
2023-02-14T13:07:20.098Z,13.93
2023-02-14T13:10:24.962Z,14.18
2023-02-14T13:13:22.127Z,13.75
2023-02-14T13:15:58.997Z,12.90
2023-02-14T13:18:39.694Z,13.30
2023-02-14T13:21:10.697Z,13.90
2023-02-14T13:23:53.333Z,13.70
2023-02-14T13:26:25.821Z,12.88
2023-02-14T13:29:06.213Z,12.68
2023-02-14T13:31:33.828Z,13.93
2023-02-14T13:36:38.932Z,13.60
2023-02-14T13:39:06.124Z,13.73
2023-02-14T13:41:33.554Z,12.95
2023-02-14T13:44:02.950Z,12.43
2023-02-14T13:46:32.800Z,13.25
2023-02-14T13:49:25.340Z,12.38
2023-02-14T13:51:58.923Z,13.70
2023-02-14T13:54:34.944Z,13.85
2023-02-14T13:57:23.025Z,11.43
2023-02-14T14:00:30.216Z,12.82
2023-02-14T14:05:30.291Z,11.98
2023-02-14T14:08:22.598Z,14.02
2023-02-14T14:10:59.646Z,14.13
2023-02-14T14:13:41.701Z,13.43
2023-02-14T14:16:27.654Z,13.25
2023-02-14T14:19:15.236Z,13.38
2023-02-14T14:24:33.836Z,13.55
2023-02-14T14:27:27.528Z,12.90
2023-02-14T14:29:59.669Z,13.27
2023-02-14T14:32:35.191Z,13.65
2023-02-14T14:35:04.755Z,13.77
2023-02-14T14:37:34.289Z,13.73
2023-02-14T14:40:05.155Z,13.43
2023-02-14T14:42:41.189Z,12.65
2023-02-14T14:45:22.926Z,12.65
2023-02-14T14:47:54.335Z,13.80
2023-02-14T14:50:31.160Z,12.77
2023-02-14T14:53:03.045Z,12.55
2023-02-14T14:55:33.575Z,13.07
2023-02-14T14:58:04.764Z,12.73
2023-02-14T15:00:34.836Z,12.52
2023-02-14T15:03:08.960Z,13.57
2023-02-14T15:05:50.247Z,13.75
2023-02-14T15:08:34.734Z,14.30
2023-02-14T15:11:39.344Z,12.85
2023-02-14T15:14:10.957Z,13.88
2023-02-14T15:16:57.913Z,13.43
2023-02-14T15:19:37.328Z,13.95
2023-02-14T15:22:19.325Z,13.10
2023-02-14T15:24:49.184Z,13.20
2023-02-14T15:27:18.494Z,13.55
2023-02-14T15:29:54.526Z,13.68
2023-02-14T15:32:22.039Z,14.13
2023-02-14T15:34:49.201Z,14.25
2023-02-14T15:37:19.370Z,13.97
2023-02-14T15:39:50.536Z,14.60
2023-02-14T15:42:23.340Z,14.20
2023-02-14T15:44:50.030Z,13.30
2023-02-14T15:47:16.923Z,13.40
2023-02-14T15:49:48.147Z,13.80
2023-02-14T15:52:17.291Z,14.48
2023-02-14T15:54:47.891Z,14.57
2023-02-14T15:57:27.455Z,14.02
2023-02-14T15:59:55.285Z,14.23
2023-02-14T16:02:42.962Z,13.63
2023-02-14T16:05:21.073Z,14.02
2023-02-14T16:08:09.952Z,14.15
2023-02-14T16:10:40.227Z,13.60
2023-02-14T16:13:10.086Z,14.30
2023-02-14T16:15:42.723Z,13.80
2023-02-14T16:18:32.264Z,13.80
2023-02-14T16:21:12.779Z,14.68
2023-02-14T16:23:39.798Z,13.88
2023-02-14T16:26:07.448Z,13.57
2023-02-14T16:28:37.182Z,15.02
2023-02-14T16:31:11.639Z,13.77
2023-02-14T16:33:41.617Z,13.82
2023-02-14T16:36:31.869Z,14.57
2023-02-14T16:39:02.557Z,14.35
2023-02-14T16:41:30.350Z,14.50
2023-02-14T16:43:57.386Z,14.40
2023-02-14T16:46:35.861Z,15.73
2023-02-14T16:49:03.421Z,14.65
2023-02-14T16:51:33.542Z,23.13
2023-02-14T16:54:05.676Z,30.05
2023-02-14T16:57:01.526Z,26.35
2023-02-14T16:59:28.629Z,20.08
2023-02-14T17:01:59.393Z,19.55
2023-02-14T17:04:26.116Z,16.98
2023-02-14T17:06:54.982Z,17.48
2023-02-14T17:09:28.059Z,17.00
2023-02-14T17:11:58.511Z,17.10
2023-02-14T17:14:29.262Z,17.13
2023-02-14T17:17:00.238Z,17.45
2023-02-14T17:19:27.126Z,20.55
2023-02-14T17:21:56.653Z,18.95
2023-02-14T17:24:24.879Z,25.70
2023-02-14T17:29:19.592Z,21.40
2023-02-14T17:31:46.554Z,20.80
2023-02-14T17:34:13.510Z,19.15
2023-02-14T17:36:44.262Z,19.15
2023-02-14T17:39:11.965Z,18.65
2023-02-14T17:41:39.768Z,17.98
2023-02-14T17:44:07.647Z,19.08
2023-02-14T17:46:34.586Z,16.45
2023-02-14T17:49:04.215Z,17.63
2023-02-14T17:51:33.973Z,20.52
2023-02-14T17:54:00.686Z,18.95
2023-02-14T17:56:27.669Z,19.80
2023-02-14T17:58:57.996Z,18.95
2023-02-14T18:01:31.287Z,18.20
2023-02-14T18:03:58.191Z,19.40
2023-02-14T18:06:26.610Z,18.73
2023-02-14T18:08:57.051Z,17.88
2023-02-14T18:11:27.671Z,15.63
2023-02-14T18:13:58.083Z,14.10
2023-02-14T18:16:25.030Z,13.85
2023-02-14T18:18:51.857Z,12.07
2023-02-14T18:21:21.117Z,11.85
2023-02-14T18:23:48.410Z,14.95
2023-02-14T18:26:18.263Z,12.07
2023-02-14T18:28:48.557Z,11.60
2023-02-14T18:31:18.479Z,11.75
2023-02-14T18:33:48.014Z,13.52
2023-02-14T18:36:18.821Z,13.30
2023-02-14T18:38:49.142Z,11.63
2023-02-14T18:41:18.421Z,12.27
2023-02-14T18:43:49.349Z,13.32
2023-02-14T18:46:26.068Z,13.50
2023-02-14T18:48:53.553Z,13.13
2023-02-14T18:51:25.633Z,13.93
2023-02-14T18:53:56.761Z,13.82
2023-02-14T18:56:30.093Z,13.25
2023-02-14T18:59:08.018Z,12.25
2023-02-14T19:01:40.392Z,13.10
2023-02-14T19:04:09.285Z,15.63
2023-02-14T19:06:37.579Z,14.48
2023-02-14T19:09:08.952Z,15.70
2023-02-14T19:11:42.742Z,15.98
2023-02-14T19:14:11.056Z,16.95
2023-02-14T19:19:09.148Z,17.27
2023-02-14T19:21:36.974Z,16.35
2023-02-14T19:24:06.945Z,16.42
2023-02-14T19:26:40.298Z,17.00
2023-02-14T19:29:11.231Z,16.42
2023-02-14T19:31:43.366Z,16.05
2023-02-14T19:34:29.562Z,15.35
2023-02-14T19:36:59.083Z,13.93
2023-02-14T19:39:29.541Z,14.98
2023-02-14T19:41:57.166Z,15.88
2023-02-14T19:44:25.797Z,15.60
2023-02-14T19:46:54.458Z,15.45
2023-02-14T19:49:21.937Z,15.27
2023-02-14T19:51:51.163Z,16.67
2023-02-14T19:54:19.577Z,15.25
2023-02-14T19:56:47.034Z,16.02
2023-02-14T19:59:20.548Z,15.37
2023-02-14T20:01:56.713Z,16.38
2023-02-14T20:04:29.412Z,14.70
2023-02-14T20:06:56.823Z,15.93
2023-02-14T20:09:24.213Z,17.15
2023-02-14T20:11:57.016Z,17.13
2023-02-14T20:14:25.464Z,15.45
2023-02-14T20:19:29.482Z,18.50
2023-02-14T20:21:57.574Z,17.83
2023-02-14T20:24:29.719Z,18.00
2023-02-14T20:26:56.610Z,17.85
2023-02-14T20:29:24.739Z,17.33
2023-02-14T20:31:56.546Z,16.77
2023-02-14T20:34:23.451Z,14.77
2023-02-14T20:36:53.487Z,15.68
2023-02-14T20:39:27.622Z,13.20
2023-02-14T20:41:54.860Z,12.68
2023-02-14T20:44:21.970Z,12.80
2023-02-14T20:46:51.710Z,12.88
2023-02-14T20:49:20.415Z,12.20
2023-02-14T20:51:49.958Z,12.93
2023-02-14T20:54:18.494Z,15.88
2023-02-14T20:56:45.958Z,15.50
2023-02-14T20:59:13.341Z,16.20
2023-02-14T21:01:40.368Z,18.23
2023-02-14T21:04:07.342Z,17.55
2023-02-14T21:06:35.646Z,14.43
2023-02-14T21:11:30.077Z,11.63
2023-02-14T21:14:00.150Z,11.43
2023-02-14T21:16:28.082Z,11.63
2023-02-14T21:18:59.420Z,13.27
2023-02-14T21:21:36.741Z,13.88
2023-02-14T21:24:06.900Z,15.10
2023-02-14T21:26:33.844Z,12.75
2023-02-14T21:29:00.919Z,13.88
2023-02-14T21:31:28.164Z,13.02
2023-02-14T21:33:57.448Z,12.73
2023-02-14T21:36:28.821Z,12.27
2023-02-14T21:38:58.684Z,12.63
2023-02-14T21:41:30.609Z,11.60
2023-02-14T21:43:59.607Z,10.52
2023-02-14T21:46:31.941Z,10.52
2023-02-14T21:49:22.389Z,9.00
2023-02-14T21:51:49.398Z,8.63
2023-02-14T21:54:17.052Z,6.28
2023-02-14T21:56:46.365Z,7.35
2023-02-14T21:59:13.528Z,7.38
2023-02-14T22:01:41.607Z,8.68
2023-02-14T22:04:12.844Z,10.05
2023-02-14T22:06:41.278Z,11.10
2023-02-14T22:11:37.232Z,11.52
2023-02-14T22:14:04.345Z,12.18
2023-02-14T22:16:31.182Z,11.38
2023-02-14T22:18:58.133Z,11.32
2023-02-14T22:21:27.009Z,10.73
2023-02-14T22:23:55.343Z,10.52
2023-02-14T22:26:29.301Z,13.60
2023-02-14T22:29:01.374Z,12.70
2023-02-14T22:31:32.277Z,14.05
2023-02-14T22:34:01.247Z,14.73
2023-02-14T22:36:28.361Z,13.38
2023-02-14T22:38:55.599Z,13.10
2023-02-14T22:41:24.367Z,13.80
2023-02-14T22:43:52.819Z,11.52
2023-02-14T22:48:55.678Z,10.30
2023-02-14T22:51:25.944Z,10.60
2023-02-14T22:53:54.969Z,9.95
2023-02-14T22:56:31.380Z,10.32
2023-02-14T22:59:02.396Z,11.50
2023-02-14T23:01:30.305Z,10.90
2023-02-14T23:03:59.390Z,12.02
2023-02-14T23:06:27.698Z,12.48
2023-02-14T23:08:55.730Z,11.80
2023-02-14T23:11:25.028Z,11.80
2023-02-14T23:14:10.773Z,11.80
2023-02-14T23:16:55.983Z,13.30
2023-02-14T23:19:43.711Z,13.40
2023-02-14T23:22:20.798Z,12.63
2023-02-14T23:24:53.301Z,11.60
2023-02-14T23:27:26.500Z,12.73
2023-02-14T23:29:55.224Z,13.50
2023-02-14T23:32:22.244Z,13.52
2023-02-14T23:34:49.165Z,13.18
2023-02-14T23:37:16.108Z,14.98
2023-02-14T23:39:43.985Z,15.90
2023-02-14T23:42:15.130Z,15.35
2023-02-14T23:44:43.763Z,15.25
2023-02-14T23:47:13.162Z,15.30
2023-02-14T23:49:41.641Z,15.45
2023-02-14T23:54:40.558Z,13.68
2023-02-14T23:57:09.854Z,13.30
2023-02-14T23:59:36.559Z,12.55
